• Join FlightAware (Why Join?)
  • Login
  • US Flag 
01:41AM EDT


 

Airport Tracker/Info


-or-


 

Live Flight TrackerFlight Track Log ✈ SKW6306 ✈ 23-Jun-2013 ✈ CYXE - KDEN

Flight Track Log - Related Links

Times and Time Zones

All times are in EDT time to prevent confusion due to time zone crossing. See the SKW6306 flight status page for this flight to view local times or setup timezone preferences in your user account.

Time Position Orientation Groundspeed Altitude Reporting Facility
EDT Latitude Longitude Course Direction KTS MPH feet Rate Location/Type
04:45PM 52.1500 -106.7000 197° South 10 12 1,700  Level Winnipeg Center
04:46PM 52.1667 -106.7500 299° West 160 184 2,200 840 Climbing Winnipeg Center
04:47PM 52.1667 -106.8333 270° West 190 219 3,400 1,740 Climbing Winnipeg Center
04:48PM 52.1000 -106.8500 189° South 240 276 5,700 2,220 Climbing Winnipeg Center
04:49PM 52.0167 -106.8833 194° South 270 311 7,900 2,280 Climbing Winnipeg Center
04:50PM 51.7294 -106.9354 197° South  Level FlightAware Approximate
04:50PM 51.9500 -106.9333 205° Southwest 280 322 10,300  Level Winnipeg Center
04:51PM 51.8667 -106.9667 194° South 290 334 12,300 1,860 Climbing Winnipeg Center
04:52PM 51.8000 -107.0000 197° South 310 357 14,100 1,620 Climbing Winnipeg Center
04:53PM 51.7000 -107.0333 192° South 330 380 15,600 1,320 Climbing Winnipeg Center
04:54PM 51.6167 -107.1000 206° Southwest 340 391 16,800 1,380 Climbing Winnipeg Center
04:55PM 51.5167 -107.1333 192° South 360 414 18,400 1,380 Climbing Winnipeg Center
04:56PM 51.4167 -107.1833 197° South 360 414 19,600 1,140 Climbing Winnipeg Center
04:57PM 51.3167 -107.2500 203° Southwest 370 426 20,700 960 Climbing Winnipeg Center
04:58PM 51.2167 -107.2833 192° South 380 437 21,600 960 Climbing Winnipeg Center
04:59PM 51.1000 -107.3333 195° South 390 449 22,700 1,020 Climbing Winnipeg Center
05:00PM 51.0000 -107.3833 197° South 390 449 23,700 960 Climbing Winnipeg Center
05:01PM 50.9000 -107.4167 192° South 390 449 24,700 900 Climbing Winnipeg Center
05:02PM 50.8000 -107.4833 203° Southwest 390 449 25,600 900 Climbing Winnipeg Center
05:03PM 50.7000 -107.5333 198° South 390 449 26,500 900 Climbing Winnipeg Center
05:04PM 50.6000 -107.5667 192° South 390 449 27,500 900 Climbing Winnipeg Center
05:05PM 50.4833 -107.6167 195° South 380 437 28,300 840 Climbing Winnipeg Center
05:06PM 50.3833 -107.6667 198° South 380 437 29,200 720 Climbing Winnipeg Center
05:07PM 50.3000 -107.7000 194° South 380 437 29,800 540 Climbing Winnipeg Center
05:08PM 50.2000 -107.7333 192° South 390 449 30,300 540 Climbing Winnipeg Center
05:09PM 50.0833 -107.7333 180° South 400 460 30,900 540 Climbing Winnipeg Center
05:10PM 49.9500 -107.7500 185° South 400 460 31,400 420 Climbing Winnipeg Center
05:11PM 49.8500 -107.7667 186° South 400 460 31,800 300 Climbing Winnipeg Center
05:12PM 49.7333 -107.7833 185° South 400 460 32,100 360 Climbing Winnipeg Center
05:13PM 49.6167 -107.7833 180° South 410 472 32,600 420 Climbing Winnipeg Center
05:14PM 49.5167 -107.8167 192° South 410 472 33,000 180 Climbing Winnipeg Center
05:15PM 49.4000 -107.8167 180° South 410 472 33,000  Level Winnipeg Center
05:16PM 49.2667 -107.8333 185° South 420 483 33,000  Level Winnipeg Center
05:17PM 49.1500 -107.8667 191° South 420 483 33,000  Level Winnipeg Center
05:18PM 49.0333 -107.8667 180° South 420 483 33,000  Level Winnipeg Center
05:19PM 48.9167 -107.8833 185° South 430 495 33,000  Level Winnipeg Center
05:20PM 48.8167 -107.8833 180° South 420 483 33,000  Level Winnipeg Center
05:21PM 48.6833 -107.9000 185° South 430 495 33,000  Level Winnipeg Center
05:22PM 48.5833 -107.9000 180° South 430 495 33,000  Level Winnipeg Center
05:23PM 48.4500 -107.9333 189° South 430 495 33,000  Level Winnipeg Center
05:24PM 48.3333 -107.9333 180° South 420 483 33,000  Level Winnipeg Center
05:25PM 48.2167 -107.9500 185° South 420 483 33,000  Level Winnipeg Center
05:26PM 48.1000 -107.9833 191° South 430 495 33,000  Level Winnipeg Center
05:27PM 47.9833 -107.9833 180° South 430 495 33,000  Level Winnipeg Center
05:28PM 47.9550 -107.9528 144° Southeast 429 494 33,000  Level Salt Lake Center
05:29PM 47.8350 -107.9656 184° South 431 496 33,000  Level Salt Lake Center
05:30PM 47.6925 -107.9814 184° South 430 495 33,000  Level Salt Lake Center
05:31PM 47.5742 -107.9931 184° South 429 494 33,000  Level Salt Lake Center
05:32PM 47.4558 -107.9828 177° South 430 495 33,000  Level Salt Lake Center
05:33PM 47.3383 -107.9403 166° South 438 504 33,000  Level Salt Lake Center
05:34PM 47.2206 -107.8958 166° South 435 501 33,000  Level Salt Lake Center
05:35PM 47.0908 -107.8489 166° South 436 502 33,000  Level Salt Lake Center
05:36PM 46.9717 -107.8067 166° South 439 505 33,000  Level Salt Lake Center
05:37PM 46.8536 -107.7631 166° South 439 505 33,000  Level Salt Lake Center
05:38PM 46.7361 -107.7214 166° South 438 504 33,000  Level Salt Lake Center
05:39PM 46.5881 -107.6669 166° South 440 506 33,000  Level Salt Lake Center
05:40PM 46.4711 -107.6250 166° South 437 503 33,000  Level Salt Lake Center
05:41PM 46.3533 -107.5842 167° South 438 504 33,000  Level Salt Lake Center
05:42PM 46.2275 -107.5392 166° South 435 501 33,000  Level Salt Lake Center
05:43PM 46.1108 -107.4969 166° South 437 503 33,000  Level Salt Lake Center
05:44PM 45.9847 -107.4528 166° South 437 503 33,000  Level Salt Lake Center
05:45PM 45.8672 -107.4125 167° South 435 501 33,000  Level Salt Lake Center
05:46PM 45.7408 -107.3692 167° South 434 499 33,000  Level Salt Lake Center
05:47PM 45.6242 -107.3294 167° South 436 502 33,000  Level Salt Lake Center
05:48PM 45.4975 -107.2850 166° South 436 502 33,000  Level Salt Lake Center
05:49PM 45.3914 -107.2492 167° South 433 498 33,000  Level Salt Lake Center
05:51PM 45.2683 -107.2081 167° South 427 491 33,000  Level Salt Lake Center
05:52PM 45.1444 -107.1653 166° South 430 495 33,000  Level Salt Lake Center
05:53PM 45.0139 -107.1214 167° South 431 496 33,000  Level Salt Lake Center
05:54PM 44.9036 -107.0844 167° South 428 493 33,000  Level Salt Lake Center
05:55PM 44.7933 -107.0494 167° South 427 491 33,000  Level Salt Lake Center
05:56PM 44.6644 -107.0178 170° South 422 486 33,000  Level Salt Lake Center
05:57PM 44.5542 -106.9894 170° South 421 484 33,000  Level Salt Lake Center
05:58PM 44.4242 -106.9564 170° South 425 489 33,000  Level Salt Lake Center
05:59PM 44.3125 -106.9281 170° South 426 490 33,000  Level Salt Lake Center
06:00PM 44.1836 -106.8942 169° South 425 489 33,000  Level Salt Lake Center
06:01PM 44.1081 -106.8767 171° South 425 489 33,000  Level Denver Center
06:02PM 43.9433 -106.8369 170° South 422 486 33,000  Level Salt Lake Center
06:03PM 43.8328 -106.8103 170° South 422 486 33,000  Level Salt Lake Center
06:04PM 43.7231 -106.7808 169° South 420 483 33,000  Level Denver Center
06:05PM 43.6133 -106.7533 170° South 419 482 33,000  Level Denver Center
06:06PM 43.4858 -106.7231 170° South 418 481 33,000  Level Denver Center
06:07PM 43.3758 -106.6961 170° South 418 481 33,000  Level Denver Center
06:08PM 43.2658 -106.6711 171° South 419 482 33,000  Level Denver Center
06:09PM 43.1375 -106.6383 169° South 420 483 33,000  Level Denver Center
06:10PM 42.9914 -106.6047 170° South 418 481 33,000  Level Denver Center
06:11PM 42.8811 -106.5778 170° South 420 483 33,000  Level Denver Center
06:12PM 42.7547 -106.5481 170° South 415 478 33,000  Level Denver Center
06:13PM 42.6261 -106.5181 170° South 420 483 33,000  Level Denver Center
06:14PM 42.5356 -106.4958 170° South 417 480 33,000  Level Denver Center
06:16PM 42.3903 -106.4625 170° South 416 479 33,000  Level Denver Center
06:17PM 42.2625 -106.4314 170° South 417 480 33,000  Level Denver Center
06:18PM 42.1719 -106.4103 170° South 417 480 33,000 -300 Level Denver Center
06:19PM 42.0278 -106.3753 170° South 413 475 32,500 -600 Descending Denver Center
06:20PM 41.9314 -106.3314 161° South 390 449 31,800 -600 Descending Denver Center
06:21PM 41.8550 -106.2897 158° South 376 433 31,300 -720 Descending Denver Center
06:22PM 41.7367 -106.2269 158° South 363 418 30,400 -660 Descending Denver Center
06:23PM 41.6508 -106.1786 157° South 353 406 30,000 -240 Descending Denver Center
06:24PM 41.5508 -106.1256 158° South 348 400 30,000  Level Denver Center
06:25PM 41.4642 -106.0792 158° South 351 404 30,000  Level Denver Center
06:26PM 41.3603 -106.0250 159° South 357 411 30,000  Level Denver Center
06:27PM 41.2703 -105.9756 158° South 363 418 30,000  Level Denver Center
06:28PM 41.1656 -105.9203 158° South 363 418 30,000  Level Denver Center
06:29PM 41.0644 -105.8675 159° South 351 404 30,000  Level Denver Center
06:30PM 40.9661 -105.8156 158° South 342 394 30,000 -360 Level Denver Center
06:31PM 40.8825 -105.7442 147° Southeast 359 413 29,300 -540 Descending Denver Center
06:32PM 40.8067 -105.6592 140° Southeast 361 415 29,000 -240 Descending Denver Center
06:33PM 40.7339 -105.5803 141° Southeast 345 397 28,900 -540 Descending Denver Center
06:34PM 40.6575 -105.4997 141° Southeast 349 402 28,000 -480 Descending Denver Center
06:35PM 40.5964 -105.4333 140° Southeast 357 411 28,000 -180 Level Denver Center
06:36PM 40.4869 -105.4472 186° South 311 358 27,700 -600 Descending Denver Center
06:37PM 40.4794 -105.5386 264° West 324 373 26,800 -1,020 Descending Denver Center
06:38PM 40.5458 -105.6567 307° West 337 388 25,700 -1,020 Descending Denver Center
06:39PM 40.6008 -105.7489 308° West 326 375 24,800 -840 Descending Denver Center
06:40PM 40.6892 -105.7747 347° North 362 417 24,000 -420 Descending Denver Center
06:41PM 40.7294 -105.6633 64° Northeast 361 415 24,000  Level Denver Center
06:42PM 40.6769 -105.5642 125° Southeast 336 387 24,000 -480 Level Denver Center
06:43PM 40.6058 -105.4461 128° Southeast 343 395 23,100 -840 Descending Denver Center
06:45PM 40.5333 -105.4047 157° South 307 353 22,300 -540 Descending Denver Center
06:46PM 40.4625 -105.4683 214° Southwest 316 364 22,000 -240 Descending Denver Center
06:47PM 40.4983 -105.5719 294° West 340 391 21,900 -420 Descending Denver Center
06:48PM 40.5636 -105.6617 314° West 341 392 21,200 -660 Descending Denver Center
06:49PM 40.6561 -105.6403 10° North 362 417 20,600 -540 Descending Denver Center
06:50PM 40.6622 -105.5383 85° East 355 409 20,100 -1,140 Descending Denver Center
06:51PM 40.5686 -105.4122 134° Southeast 338 389 18,300 -1,500 Descending Denver Center
06:52PM 40.4892 -105.3303 142° Southeast 357 411 17,000 -900 Descending Denver Center
06:53PM 40.4100 -105.2433 140° Southeast 335 386 16,500 -960 Descending Denver Center
06:54PM 40.3358 -105.1728 144° Southeast 328 377 15,100 -1,140 Descending Denver Center
06:55PM 40.2547 -105.1661 176° South 282 325 14,000 -960 Descending Denver Center
06:56PM 40.1758 -105.1581 176° South 264 304 13,000 -540 Descending Denver Center
06:57PM 40.0869 -105.1497 176° South 261 300 13,000 -300 Level Denver Center
06:58PM 40.0136 -105.1453 177° South 263 303 12,400 -600 Descending Denver Center
06:59PM 39.9386 -105.1458 180° South 251 289 11,700 -1,200 Descending Denver Center
07:00PM 39.8683 -105.1244 167° South 231 266 9,700 -1,320 Descending Denver Center
07:01PM 39.8514 -105.0486 106° East 222 255 9,000 -600 Descending Denver Center
07:02PM 39.8417 -104.9689 99° East 211 243 8,500 -540 Descending Denver Center
07:03PM 39.8422 -104.8950 89° East 205 236 7,900 -600 Descending Denver Center